sensor_id;sensor_type;location;lat;lon;timestamp;P1;durP1;ratioP1;P2;durP2;ratioP2
15043;SDS011;7619;48.562;8.910;2022-12-07T00:01:44;7.57;;;3.90;;
15043;SDS011;7619;48.562;8.910;2022-12-07T00:04:15;6.03;;;4.10;;
15043;SDS011;7619;48.562;8.910;2022-12-07T00:06:45;4.80;;;3.60;;
15043;SDS011;7619;48.562;8.910;2022-12-07T00:09:17;7.57;;;4.73;;
15043;SDS011;7619;48.562;8.910;2022-12-07T00:11:48;5.33;;;3.77;;
15043;SDS011;7619;48.562;8.910;2022-12-07T00:14:18;8.87;;;4.47;;
15043;SDS011;7619;48.562;8.910;2022-12-07T00:16:49;8.20;;;4.50;;
15043;SDS011;7619;48.562;8.910;2022-12-07T00:19:18;6.97;;;4.30;;
15043;SDS011;7619;48.562;8.910;2022-12-07T00:21:47;9.33;;;4.47;;
15043;SDS011;7619;48.562;8.910;2022-12-07T00:24:16;7.83;;;3.70;;
15043;SDS011;7619;48.562;8.910;2022-12-07T00:26:45;7.57;;;4.07;;
15043;SDS011;7619;48.562;8.910;2022-12-07T00:29:16;5.90;;;4.30;;
15043;SDS011;7619;48.562;8.910;2022-12-07T00:31:46;7.73;;;4.43;;
15043;SDS011;7619;48.562;8.910;2022-12-07T00:34:16;10.17;;;4.80;;
15043;SDS011;7619;48.562;8.910;2022-12-07T00:36:46;6.87;;;4.23;;
15043;SDS011;7619;48.562;8.910;2022-12-07T00:39:16;6.20;;;4.53;;
15043;SDS011;7619;48.562;8.910;2022-12-07T00:41:45;6.43;;;4.60;;
15043;SDS011;7619;48.562;8.910;2022-12-07T00:44:14;5.30;;;4.43;;
15043;SDS011;7619;48.562;8.910;2022-12-07T00:46:43;7.77;;;5.00;;
15043;SDS011;7619;48.562;8.910;2022-12-07T00:49:12;7.00;;;4.83;;
15043;SDS011;7619;48.562;8.910;2022-12-07T00:51:41;5.50;;;4.00;;
15043;SDS011;7619;48.562;8.910;2022-12-07T00:54:10;6.90;;;4.63;;
15043;SDS011;7619;48.562;8.910;2022-12-07T00:56:40;9.47;;;3.50;;
15043;SDS011;7619;48.562;8.910;2022-12-07T00:59:10;6.70;;;4.07;;
15043;SDS011;7619;48.562;8.910;2022-12-07T01:01:41;8.83;;;4.30;;
15043;SDS011;7619;48.562;8.910;2022-12-07T01:04:11;4.70;;;3.40;;
15043;SDS011;7619;48.562;8.910;2022-12-07T01:06:40;5.30;;;3.67;;
15043;SDS011;7619;48.562;8.910;2022-12-07T01:09:09;5.87;;;3.70;;
15043;SDS011;7619;48.562;8.910;2022-12-07T01:11:37;5.07;;;3.43;;
15043;SDS011;7619;48.562;8.910;2022-12-07T01:14:06;5.30;;;3.50;;
15043;SDS011;7619;48.562;8.910;2022-12-07T01:16:36;6.23;;;3.37;;
15043;SDS011;7619;48.562;8.910;2022-12-07T01:19:07;4.00;;;2.97;;
15043;SDS011;7619;48.562;8.910;2022-12-07T01:21:36;4.97;;;3.77;;
15043;SDS011;7619;48.562;8.910;2022-12-07T01:24:06;5.10;;;3.80;;
15043;SDS011;7619;48.562;8.910;2022-12-07T01:26:37;5.73;;;3.83;;
15043;SDS011;7619;48.562;8.910;2022-12-07T01:29:07;9.10;;;4.10;;
15043;SDS011;7619;48.562;8.910;2022-12-07T01:31:36;6.10;;;3.90;;
15043;SDS011;7619;48.562;8.910;2022-12-07T01:34:05;6.20;;;4.13;;
15043;SDS011;7619;48.562;8.910;2022-12-07T01:36:35;5.77;;;3.80;;
15043;SDS011;7619;48.562;8.910;2022-12-07T01:39:05;6.73;;;3.83;;
15043;SDS011;7619;48.562;8.910;2022-12-07T01:41:37;3.97;;;3.37;;
15043;SDS011;7619;48.562;8.910;2022-12-07T01:51:52;6.97;;;4.03;;
15043;SDS011;7619;48.562;8.910;2022-12-07T01:54:25;5.17;;;4.10;;
15043;SDS011;7619;48.562;8.910;2022-12-07T01:56:54;5.37;;;4.40;;
15043;SDS011;7619;48.562;8.910;2022-12-07T01:59:25;6.07;;;4.20;;
15043;SDS011;7619;48.562;8.910;2022-12-07T02:01:54;5.80;;;3.93;;
15043;SDS011;7619;48.562;8.910;2022-12-07T02:04:24;6.27;;;4.40;;
15043;SDS011;7619;48.562;8.910;2022-12-07T02:06:53;5.87;;;4.23;;
15043;SDS011;7619;48.562;8.910;2022-12-07T02:09:22;5.03;;;3.93;;
15043;SDS011;7619;48.562;8.910;2022-12-07T02:11:51;6.10;;;4.27;;
15043;SDS011;7619;48.562;8.910;2022-12-07T02:14:21;6.80;;;4.23;;
15043;SDS011;7619;48.562;8.910;2022-12-07T02:16:54;6.20;;;4.23;;
15043;SDS011;7619;48.562;8.910;2022-12-07T02:25:48;4.63;;;3.87;;
15043;SDS011;7619;48.562;8.910;2022-12-07T02:28:31;3.70;;;2.50;;
15043;SDS011;7619;48.562;8.910;2022-12-07T02:31:04;4.30;;;3.07;;
15043;SDS011;7619;48.562;8.910;2022-12-07T02:33:35;5.73;;;2.47;;
15043;SDS011;7619;48.562;8.910;2022-12-07T02:36:08;3.87;;;2.97;;
15043;SDS011;7619;48.562;8.910;2022-12-07T02:38:39;3.80;;;2.53;;
15043;SDS011;7619;48.562;8.910;2022-12-07T02:41:12;5.63;;;3.17;;
15043;SDS011;7619;48.562;8.910;2022-12-07T02:43:44;4.27;;;3.17;;
15043;SDS011;7619;48.562;8.910;2022-12-07T02:46:17;4.63;;;2.90;;
15043;SDS011;7619;48.562;8.910;2022-12-07T02:48:47;3.57;;;2.70;;
15043;SDS011;7619;48.562;8.910;2022-12-07T02:51:17;3.87;;;2.80;;
15043;SDS011;7619;48.562;8.910;2022-12-07T02:53:46;3.77;;;3.10;;
15043;SDS011;7619;48.562;8.910;2022-12-07T02:56:23;4.40;;;3.13;;
15043;SDS011;7619;48.562;8.910;2022-12-07T02:58:52;4.27;;;3.17;;
15043;SDS011;7619;48.562;8.910;2022-12-07T03:01:26;4.93;;;3.13;;
15043;SDS011;7619;48.562;8.910;2022-12-07T03:04:00;4.97;;;3.80;;
15043;SDS011;7619;48.562;8.910;2022-12-07T03:06:31;6.07;;;3.17;;
15043;SDS011;7619;48.562;8.910;2022-12-07T03:09:06;3.63;;;2.77;;
15043;SDS011;7619;48.562;8.910;2022-12-07T03:11:37;4.23;;;3.43;;
15043;SDS011;7619;48.562;8.910;2022-12-07T03:14:09;5.57;;;3.53;;
15043;SDS011;7619;48.562;8.910;2022-12-07T03:16:40;7.53;;;3.90;;
15043;SDS011;7619;48.562;8.910;2022-12-07T03:19:13;5.13;;;3.57;;
15043;SDS011;7619;48.562;8.910;2022-12-07T03:21:46;7.27;;;3.53;;
15043;SDS011;7619;48.562;8.910;2022-12-07T03:24:17;4.37;;;2.90;;
15043;SDS011;7619;48.562;8.910;2022-12-07T03:26:48;5.83;;;3.77;;
15043;SDS011;7619;48.562;8.910;2022-12-07T03:29:20;5.87;;;3.93;;
15043;SDS011;7619;48.562;8.910;2022-12-07T03:31:53;7.03;;;4.23;;
15043;SDS011;7619;48.562;8.910;2022-12-07T03:34:24;5.43;;;3.77;;
15043;SDS011;7619;48.562;8.910;2022-12-07T03:36:56;4.70;;;3.63;;
15043;SDS011;7619;48.562;8.910;2022-12-07T03:39:29;5.77;;;4.37;;
15043;SDS011;7619;48.562;8.910;2022-12-07T03:42:00;6.10;;;4.00;;
15043;SDS011;7619;48.562;8.910;2022-12-07T03:44:31;5.60;;;3.97;;
15043;SDS011;7619;48.562;8.910;2022-12-07T03:47:02;4.70;;;3.60;;
15043;SDS011;7619;48.562;8.910;2022-12-07T03:49:35;5.23;;;3.90;;
15043;SDS011;7619;48.562;8.910;2022-12-07T03:52:08;5.43;;;3.43;;
15043;SDS011;7619;48.562;8.910;2022-12-07T03:54:39;5.83;;;3.43;;
15043;SDS011;7619;48.562;8.910;2022-12-07T03:57:10;5.03;;;3.43;;
15043;SDS011;7619;48.562;8.910;2022-12-07T03:59:40;7.23;;;4.60;;
15043;SDS011;7619;48.562;8.910;2022-12-07T04:02:11;6.20;;;4.27;;
15043;SDS011;7619;48.562;8.910;2022-12-07T04:04:42;6.77;;;4.30;;
15043;SDS011;7619;48.562;8.910;2022-12-07T04:07:11;6.40;;;4.00;;
15043;SDS011;7619;48.562;8.910;2022-12-07T04:09:40;7.30;;;4.00;;
15043;SDS011;7619;48.562;8.910;2022-12-07T04:12:09;5.43;;;3.53;;
15043;SDS011;7619;48.562;8.910;2022-12-07T04:14:38;6.73;;;3.83;;
15043;SDS011;7619;48.562;8.910;2022-12-07T04:17:06;7.13;;;4.40;;
15043;SDS011;7619;48.562;8.910;2022-12-07T04:22:04;5.83;;;4.40;;
15043;SDS011;7619;48.562;8.910;2022-12-07T04:24:33;6.33;;;4.70;;
15043;SDS011;7619;48.562;8.910;2022-12-07T04:27:03;5.57;;;3.93;;
15043;SDS011;7619;48.562;8.910;2022-12-07T04:29:32;6.27;;;4.17;;
15043;SDS011;7619;48.562;8.910;2022-12-07T04:32:01;6.47;;;4.37;;
15043;SDS011;7619;48.562;8.910;2022-12-07T04:34:29;6.27;;;3.80;;
15043;SDS011;7619;48.562;8.910;2022-12-07T04:36:58;6.83;;;3.70;;
15043;SDS011;7619;48.562;8.910;2022-12-07T04:39:28;8.00;;;5.03;;
15043;SDS011;7619;48.562;8.910;2022-12-07T04:41:59;8.03;;;4.67;;
15043;SDS011;7619;48.562;8.910;2022-12-07T04:44:29;6.70;;;5.00;;
15043;SDS011;7619;48.562;8.910;2022-12-07T04:46:58;6.53;;;4.47;;
15043;SDS011;7619;48.562;8.910;2022-12-07T04:49:27;7.70;;;5.13;;
15043;SDS011;7619;48.562;8.910;2022-12-07T04:51:56;7.70;;;4.73;;
15043;SDS011;7619;48.562;8.910;2022-12-07T04:54:25;8.00;;;5.17;;
15043;SDS011;7619;48.562;8.910;2022-12-07T04:56:54;6.97;;;4.17;;
15043;SDS011;7619;48.562;8.910;2022-12-07T04:59:22;6.80;;;4.37;;
15043;SDS011;7619;48.562;8.910;2022-12-07T05:01:52;7.87;;;4.93;;
15043;SDS011;7619;48.562;8.910;2022-12-07T05:04:21;7.77;;;5.13;;
15043;SDS011;7619;48.562;8.910;2022-12-07T05:06:49;7.50;;;5.00;;
15043;SDS011;7619;48.562;8.910;2022-12-07T05:09:18;6.63;;;4.33;;
15043;SDS011;7619;48.562;8.910;2022-12-07T05:11:47;6.97;;;4.27;;
15043;SDS011;7619;48.562;8.910;2022-12-07T05:14:17;8.40;;;5.37;;
15043;SDS011;7619;48.562;8.910;2022-12-07T05:16:48;5.50;;;4.00;;
15043;SDS011;7619;48.562;8.910;2022-12-07T05:19:19;8.33;;;4.73;;
15043;SDS011;7619;48.562;8.910;2022-12-07T05:21:48;5.27;;;3.23;;
15043;SDS011;7619;48.562;8.910;2022-12-07T05:24:17;5.47;;;4.07;;
15043;SDS011;7619;48.562;8.910;2022-12-07T05:26:47;6.67;;;4.67;;
15043;SDS011;7619;48.562;8.910;2022-12-07T05:29:16;8.23;;;4.47;;
15043;SDS011;7619;48.562;8.910;2022-12-07T05:31:45;6.03;;;4.07;;
15043;SDS011;7619;48.562;8.910;2022-12-07T05:34:14;7.27;;;4.30;;
15043;SDS011;7619;48.562;8.910;2022-12-07T05:36:43;7.60;;;5.10;;
15043;SDS011;7619;48.562;8.910;2022-12-07T05:39:12;7.13;;;4.93;;
15043;SDS011;7619;48.562;8.910;2022-12-07T05:41:41;6.47;;;5.00;;
15043;SDS011;7619;48.562;8.910;2022-12-07T05:44:28;6.07;;;3.63;;
15043;SDS011;7619;48.562;8.910;2022-12-07T05:46:57;7.40;;;4.90;;
15043;SDS011;7619;48.562;8.910;2022-12-07T05:49:26;8.60;;;5.57;;
15043;SDS011;7619;48.562;8.910;2022-12-07T05:51:54;8.77;;;4.97;;
15043;SDS011;7619;48.562;8.910;2022-12-07T05:54:23;8.60;;;5.77;;
15043;SDS011;7619;48.562;8.910;2022-12-07T05:56:52;7.60;;;5.20;;
15043;SDS011;7619;48.562;8.910;2022-12-07T05:59:22;8.93;;;5.23;;
15043;SDS011;7619;48.562;8.910;2022-12-07T06:01:52;7.83;;;5.13;;
15043;SDS011;7619;48.562;8.910;2022-12-07T06:04:22;10.30;;;5.33;;
15043;SDS011;7619;48.562;8.910;2022-12-07T06:06:52;8.93;;;5.47;;
15043;SDS011;7619;48.562;8.910;2022-12-07T06:09:22;9.07;;;6.13;;
15043;SDS011;7619;48.562;8.910;2022-12-07T06:11:52;10.93;;;5.17;;
15043;SDS011;7619;48.562;8.910;2022-12-07T06:14:39;7.73;;;5.00;;
15043;SDS011;7619;48.562;8.910;2022-12-07T06:17:08;8.77;;;4.87;;
15043;SDS011;7619;48.562;8.910;2022-12-07T06:19:38;8.13;;;5.00;;
15043;SDS011;7619;48.562;8.910;2022-12-07T06:22:09;9.63;;;5.20;;
15043;SDS011;7619;48.562;8.910;2022-12-07T06:24:38;9.33;;;5.43;;
15043;SDS011;7619;48.562;8.910;2022-12-07T06:27:07;9.73;;;5.50;;
15043;SDS011;7619;48.562;8.910;2022-12-07T06:29:37;8.07;;;5.47;;
15043;SDS011;7619;48.562;8.910;2022-12-07T06:32:06;8.77;;;5.53;;
15043;SDS011;7619;48.562;8.910;2022-12-07T06:34:35;7.43;;;4.97;;
15043;SDS011;7619;48.562;8.910;2022-12-07T06:37:05;10.53;;;6.33;;
15043;SDS011;7619;48.562;8.910;2022-12-07T06:39:34;8.17;;;5.47;;
15043;SDS011;7619;48.562;8.910;2022-12-07T06:42:03;10.30;;;5.77;;
15043;SDS011;7619;48.562;8.910;2022-12-07T06:44:32;15.77;;;5.90;;
15043;SDS011;7619;48.562;8.910;2022-12-07T06:47:01;11.67;;;6.80;;
15043;SDS011;7619;48.562;8.910;2022-12-07T06:49:30;10.40;;;5.80;;
15043;SDS011;7619;48.562;8.910;2022-12-07T06:51:59;8.93;;;6.17;;
15043;SDS011;7619;48.562;8.910;2022-12-07T06:54:28;9.70;;;5.60;;
15043;SDS011;7619;48.562;8.910;2022-12-07T06:56:57;9.93;;;6.03;;
15043;SDS011;7619;48.562;8.910;2022-12-07T06:59:26;9.40;;;5.93;;
15043;SDS011;7619;48.562;8.910;2022-12-07T07:01:55;9.40;;;5.87;;
15043;SDS011;7619;48.562;8.910;2022-12-07T07:04:25;10.87;;;5.50;;
15043;SDS011;7619;48.562;8.910;2022-12-07T07:06:54;7.73;;;5.03;;
15043;SDS011;7619;48.562;8.910;2022-12-07T07:09:23;9.17;;;5.93;;
15043;SDS011;7619;48.562;8.910;2022-12-07T07:11:52;9.13;;;6.10;;
15043;SDS011;7619;48.562;8.910;2022-12-07T07:14:22;11.00;;;6.23;;
15043;SDS011;7619;48.562;8.910;2022-12-07T07:16:51;8.50;;;6.00;;
15043;SDS011;7619;48.562;8.910;2022-12-07T07:19:20;8.47;;;5.17;;
15043;SDS011;7619;48.562;8.910;2022-12-07T07:21:49;7.97;;;5.10;;
15043;SDS011;7619;48.562;8.910;2022-12-07T07:24:18;9.67;;;5.97;;
15043;SDS011;7619;48.562;8.910;2022-12-07T07:26:47;8.17;;;4.87;;
15043;SDS011;7619;48.562;8.910;2022-12-07T07:29:16;13.67;;;7.33;;
15043;SDS011;7619;48.562;8.910;2022-12-07T07:31:45;9.93;;;6.57;;
15043;SDS011;7619;48.562;8.910;2022-12-07T07:34:14;11.27;;;5.77;;
15043;SDS011;7619;48.562;8.910;2022-12-07T07:36:43;12.73;;;7.40;;
15043;SDS011;7619;48.562;8.910;2022-12-07T07:39:12;12.30;;;8.53;;
15043;SDS011;7619;48.562;8.910;2022-12-07T07:41:41;12.90;;;6.87;;
15043;SDS011;7619;48.562;8.910;2022-12-07T07:44:11;10.83;;;6.80;;
15043;SDS011;7619;48.562;8.910;2022-12-07T07:46:40;10.53;;;6.83;;
15043;SDS011;7619;48.562;8.910;2022-12-07T07:49:24;13.97;;;8.13;;
15043;SDS011;7619;48.562;8.910;2022-12-07T07:51:53;12.43;;;7.20;;
15043;SDS011;7619;48.562;8.910;2022-12-07T07:54:22;11.17;;;6.67;;
15043;SDS011;7619;48.562;8.910;2022-12-07T07:56:52;18.20;;;6.17;;
15043;SDS011;7619;48.562;8.910;2022-12-07T07:59:21;12.37;;;6.67;;
15043;SDS011;7619;48.562;8.910;2022-12-07T08:01:51;10.00;;;5.93;;
15043;SDS011;7619;48.562;8.910;2022-12-07T08:04:19;9.20;;;6.87;;
15043;SDS011;7619;48.562;8.910;2022-12-07T08:06:48;10.03;;;6.10;;
15043;SDS011;7619;48.562;8.910;2022-12-07T08:09:17;11.00;;;7.17;;
15043;SDS011;7619;48.562;8.910;2022-12-07T08:11:45;10.70;;;7.20;;
15043;SDS011;7619;48.562;8.910;2022-12-07T08:14:14;11.20;;;7.13;;
15043;SDS011;7619;48.562;8.910;2022-12-07T08:16:52;11.40;;;6.20;;
15043;SDS011;7619;48.562;8.910;2022-12-07T08:19:20;10.70;;;7.43;;
15043;SDS011;7619;48.562;8.910;2022-12-07T08:21:49;8.80;;;6.00;;
15043;SDS011;7619;48.562;8.910;2022-12-07T08:24:18;14.07;;;7.80;;
15043;SDS011;7619;48.562;8.910;2022-12-07T08:26:47;10.73;;;6.30;;
15043;SDS011;7619;48.562;8.910;2022-12-07T08:29:16;13.07;;;6.97;;
15043;SDS011;7619;48.562;8.910;2022-12-07T08:31:48;9.20;;;6.03;;
15043;SDS011;7619;48.562;8.910;2022-12-07T08:34:19;8.23;;;5.73;;
15043;SDS011;7619;48.562;8.910;2022-12-07T08:36:47;11.37;;;5.67;;
15043;SDS011;7619;48.562;8.910;2022-12-07T08:39:17;10.33;;;5.80;;
15043;SDS011;7619;48.562;8.910;2022-12-07T08:41:46;10.53;;;6.33;;
15043;SDS011;7619;48.562;8.910;2022-12-07T08:44:15;8.13;;;5.60;;
15043;SDS011;7619;48.562;8.910;2022-12-07T08:46:45;6.70;;;4.97;;
15043;SDS011;7619;48.562;8.910;2022-12-07T08:49:17;9.50;;;6.03;;
15043;SDS011;7619;48.562;8.910;2022-12-07T08:51:48;9.40;;;4.93;;
15043;SDS011;7619;48.562;8.910;2022-12-07T08:54:18;8.23;;;5.30;;
15043;SDS011;7619;48.562;8.910;2022-12-07T08:56:48;7.23;;;5.03;;
15043;SDS011;7619;48.562;8.910;2022-12-07T08:59:19;6.70;;;4.73;;
15043;SDS011;7619;48.562;8.910;2022-12-07T09:01:48;7.50;;;4.97;;
15043;SDS011;7619;48.562;8.910;2022-12-07T09:04:19;6.70;;;4.50;;
15043;SDS011;7619;48.562;8.910;2022-12-07T09:06:48;6.73;;;4.97;;
15043;SDS011;7619;48.562;8.910;2022-12-07T09:09:17;7.70;;;4.60;;
15043;SDS011;7619;48.562;8.910;2022-12-07T09:11:46;8.10;;;4.70;;
15043;SDS011;7619;48.562;8.910;2022-12-07T09:14:15;6.73;;;4.53;;
15043;SDS011;7619;48.562;8.910;2022-12-07T09:16:45;5.60;;;4.33;;
15043;SDS011;7619;48.562;8.910;2022-12-07T09:19:14;6.27;;;4.27;;
15043;SDS011;7619;48.562;8.910;2022-12-07T09:21:43;6.50;;;4.13;;
15043;SDS011;7619;48.562;8.910;2022-12-07T09:24:12;5.63;;;3.70;;
15043;SDS011;7619;48.562;8.910;2022-12-07T09:26:41;5.97;;;4.13;;
15043;SDS011;7619;48.562;8.910;2022-12-07T09:29:10;5.63;;;3.70;;
15043;SDS011;7619;48.562;8.910;2022-12-07T09:31:40;6.93;;;4.63;;
15043;SDS011;7619;48.562;8.910;2022-12-07T09:34:09;5.03;;;4.17;;
15043;SDS011;7619;48.562;8.910;2022-12-07T09:36:38;6.40;;;4.27;;
15043;SDS011;7619;48.562;8.910;2022-12-07T09:39:08;6.13;;;4.67;;
15043;SDS011;7619;48.562;8.910;2022-12-07T09:41:37;5.10;;;3.77;;
15043;SDS011;7619;48.562;8.910;2022-12-07T09:44:11;5.47;;;4.00;;
15043;SDS011;7619;48.562;8.910;2022-12-07T09:46:42;7.60;;;4.20;;
15043;SDS011;7619;48.562;8.910;2022-12-07T09:49:12;6.27;;;3.97;;
15043;SDS011;7619;48.562;8.910;2022-12-07T09:51:43;8.90;;;4.80;;
15043;SDS011;7619;48.562;8.910;2022-12-07T09:54:13;5.33;;;4.33;;
15043;SDS011;7619;48.562;8.910;2022-12-07T09:56:43;6.07;;;4.27;;
15043;SDS011;7619;48.562;8.910;2022-12-07T09:59:13;4.80;;;3.63;;
15043;SDS011;7619;48.562;8.910;2022-12-07T10:01:45;5.67;;;3.97;;
15043;SDS011;7619;48.562;8.910;2022-12-07T10:04:16;4.97;;;3.77;;
15043;SDS011;7619;48.562;8.910;2022-12-07T10:06:48;6.03;;;4.17;;
15043;SDS011;7619;48.562;8.910;2022-12-07T10:09:18;4.60;;;3.40;;
15043;SDS011;7619;48.562;8.910;2022-12-07T10:11:58;5.60;;;3.70;;
15043;SDS011;7619;48.562;8.910;2022-12-07T10:14:29;8.23;;;4.10;;
15043;SDS011;7619;48.562;8.910;2022-12-07T10:17:00;5.07;;;3.67;;
15043;SDS011;7619;48.562;8.910;2022-12-07T10:19:30;3.23;;;2.93;;
15043;SDS011;7619;48.562;8.910;2022-12-07T10:22:04;5.50;;;3.70;;
15043;SDS011;7619;48.562;8.910;2022-12-07T10:24:41;5.00;;;3.70;;
15043;SDS011;7619;48.562;8.910;2022-12-07T10:27:19;5.53;;;3.70;;
15043;SDS011;7619;48.562;8.910;2022-12-07T10:29:50;5.20;;;3.70;;
15043;SDS011;7619;48.562;8.910;2022-12-07T10:32:29;5.40;;;3.90;;
15043;SDS011;7619;48.562;8.910;2022-12-07T10:35:21;4.87;;;3.70;;
15043;SDS011;7619;48.562;8.910;2022-12-07T10:37:52;5.47;;;4.00;;
15043;SDS011;7619;48.562;8.910;2022-12-07T10:40:30;9.90;;;4.17;;
15043;SDS011;7619;48.562;8.910;2022-12-07T10:43:02;4.93;;;3.83;;
15043;SDS011;7619;48.562;8.910;2022-12-07T10:45:34;6.13;;;4.17;;
15043;SDS011;7619;48.562;8.910;2022-12-07T10:48:06;5.90;;;3.90;;
15043;SDS011;7619;48.562;8.910;2022-12-07T10:50:49;5.07;;;3.97;;
15043;SDS011;7619;48.562;8.910;2022-12-07T10:53:37;4.70;;;3.43;;
15043;SDS011;7619;48.562;8.910;2022-12-07T10:56:21;4.73;;;3.90;;
15043;SDS011;7619;48.562;8.910;2022-12-07T10:59:01;4.53;;;3.60;;
15043;SDS011;7619;48.562;8.910;2022-12-07T11:01:36;5.00;;;3.53;;
15043;SDS011;7619;48.562;8.910;2022-12-07T11:04:17;5.07;;;3.80;;
15043;SDS011;7619;48.562;8.910;2022-12-07T11:06:53;3.83;;;3.43;;
15043;SDS011;7619;48.562;8.910;2022-12-07T11:09:34;6.50;;;4.10;;
15043;SDS011;7619;48.562;8.910;2022-12-07T11:12:09;5.20;;;3.57;;
15043;SDS011;7619;48.562;8.910;2022-12-07T11:14:44;6.20;;;3.90;;
15043;SDS011;7619;48.562;8.910;2022-12-07T11:17:14;5.80;;;3.77;;
15043;SDS011;7619;48.562;8.910;2022-12-07T11:19:50;6.13;;;4.17;;
15043;SDS011;7619;48.562;8.910;2022-12-07T11:22:26;6.13;;;3.30;;
15043;SDS011;7619;48.562;8.910;2022-12-07T11:24:57;5.77;;;3.77;;
15043;SDS011;7619;48.562;8.910;2022-12-07T11:27:32;5.53;;;3.67;;
15043;SDS011;7619;48.562;8.910;2022-12-07T11:30:10;6.70;;;4.77;;
15043;SDS011;7619;48.562;8.910;2022-12-07T11:32:45;5.13;;;3.80;;
15043;SDS011;7619;48.562;8.910;2022-12-07T11:35:32;5.63;;;3.77;;
15043;SDS011;7619;48.562;8.910;2022-12-07T11:38:08;4.40;;;3.43;;
15043;SDS011;7619;48.562;8.910;2022-12-07T11:40:39;4.67;;;3.50;;
15043;SDS011;7619;48.562;8.910;2022-12-07T11:43:13;6.43;;;3.70;;
15043;SDS011;7619;48.562;8.910;2022-12-07T11:45:46;4.63;;;3.53;;
15043;SDS011;7619;48.562;8.910;2022-12-07T11:48:19;4.70;;;3.40;;
15043;SDS011;7619;48.562;8.910;2022-12-07T11:50:51;5.50;;;3.50;;
15043;SDS011;7619;48.562;8.910;2022-12-07T11:53:24;7.27;;;3.40;;
15043;SDS011;7619;48.562;8.910;2022-12-07T11:55:57;6.10;;;3.53;;
15043;SDS011;7619;48.562;8.910;2022-12-07T11:58:35;4.83;;;3.13;;
15043;SDS011;7619;48.562;8.910;2022-12-07T12:01:11;4.07;;;3.20;;
15043;SDS011;7619;48.562;8.910;2022-12-07T12:03:44;5.07;;;3.47;;
15043;SDS011;7619;48.562;8.910;2022-12-07T12:06:14;5.43;;;3.40;;
15043;SDS011;7619;48.562;8.910;2022-12-07T12:08:43;4.70;;;3.50;;
15043;SDS011;7619;48.562;8.910;2022-12-07T12:11:19;6.43;;;3.67;;
15043;SDS011;7619;48.562;8.910;2022-12-07T12:16:48;4.53;;;3.27;;
15043;SDS011;7619;48.562;8.910;2022-12-07T12:19:25;7.70;;;3.33;;
15043;SDS011;7619;48.562;8.910;2022-12-07T12:22:00;5.27;;;3.57;;
15043;SDS011;7619;48.562;8.910;2022-12-07T12:24:30;8.57;;;3.50;;
15043;SDS011;7619;48.562;8.910;2022-12-07T12:27:03;4.80;;;3.53;;
15043;SDS011;7619;48.562;8.910;2022-12-07T12:29:36;4.90;;;3.43;;
15043;SDS011;7619;48.562;8.910;2022-12-07T12:32:13;3.73;;;3.00;;
15043;SDS011;7619;48.562;8.910;2022-12-07T12:34:59;4.03;;;2.70;;
15043;SDS011;7619;48.562;8.910;2022-12-07T12:37:40;5.50;;;3.43;;
15043;SDS011;7619;48.562;8.910;2022-12-07T12:46:36;7.43;;;4.27;;
15043;SDS011;7619;48.562;8.910;2022-12-07T12:49:38;4.20;;;2.93;;
15043;SDS011;7619;48.562;8.910;2022-12-07T12:55:30;4.97;;;3.40;;
15043;SDS011;7619;48.562;8.910;2022-12-07T13:01:36;5.07;;;3.40;;
15043;SDS011;7619;48.562;8.910;2022-12-07T13:04:25;5.60;;;3.77;;
15043;SDS011;7619;48.562;8.910;2022-12-07T13:07:13;4.80;;;3.60;;
15043;SDS011;7619;48.562;8.910;2022-12-07T13:10:01;6.67;;;3.83;;
15043;SDS011;7619;48.562;8.910;2022-12-07T13:12:34;5.43;;;3.70;;
15043;SDS011;7619;48.562;8.910;2022-12-07T13:15:03;6.47;;;3.57;;
15043;SDS011;7619;48.562;8.910;2022-12-07T13:18:00;4.90;;;3.30;;
15043;SDS011;7619;48.562;8.910;2022-12-07T13:20:44;4.67;;;3.80;;
15043;SDS011;7619;48.562;8.910;2022-12-07T13:23:22;4.73;;;3.37;;
15043;SDS011;7619;48.562;8.910;2022-12-07T13:25:58;4.97;;;3.47;;
15043;SDS011;7619;48.562;8.910;2022-12-07T13:28:39;4.07;;;2.97;;
15043;SDS011;7619;48.562;8.910;2022-12-07T13:31:29;3.73;;;2.77;;
15043;SDS011;7619;48.562;8.910;2022-12-07T13:34:02;4.57;;;3.23;;
15043;SDS011;7619;48.562;8.910;2022-12-07T13:36:33;3.07;;;2.00;;
15043;SDS011;7619;48.562;8.910;2022-12-07T13:39:15;3.37;;;2.40;;
15043;SDS011;7619;48.562;8.910;2022-12-07T13:41:55;6.20;;;2.73;;
15043;SDS011;7619;48.562;8.910;2022-12-07T13:44:27;2.43;;;1.87;;
15043;SDS011;7619;48.562;8.910;2022-12-07T13:47:05;3.50;;;1.93;;
15043;SDS011;7619;48.562;8.910;2022-12-07T13:49:37;2.97;;;1.97;;
15043;SDS011;7619;48.562;8.910;2022-12-07T13:54:56;2.23;;;1.43;;
15043;SDS011;7619;48.562;8.910;2022-12-07T13:57:25;1.40;;;1.30;;
15043;SDS011;7619;48.562;8.910;2022-12-07T13:59:56;1.57;;;1.47;;
15043;SDS011;7619;48.562;8.910;2022-12-07T14:02:26;1.47;;;1.37;;
15043;SDS011;7619;48.562;8.910;2022-12-07T14:05:06;4.43;;;2.03;;
15043;SDS011;7619;48.562;8.910;2022-12-07T14:07:47;3.20;;;1.47;;
15043;SDS011;7619;48.562;8.910;2022-12-07T14:10:24;3.57;;;1.77;;
15043;SDS011;7619;48.562;8.910;2022-12-07T14:12:54;2.40;;;1.50;;
15043;SDS011;7619;48.562;8.910;2022-12-07T14:15:25;2.23;;;1.90;;
15043;SDS011;7619;48.562;8.910;2022-12-07T14:17:56;2.23;;;1.83;;
15043;SDS011;7619;48.562;8.910;2022-12-07T14:20:29;2.17;;;1.53;;
15043;SDS011;7619;48.562;8.910;2022-12-07T14:23:00;3.03;;;2.00;;
15043;SDS011;7619;48.562;8.910;2022-12-07T14:25:32;2.13;;;1.70;;
15043;SDS011;7619;48.562;8.910;2022-12-07T14:28:01;3.30;;;2.10;;
15043;SDS011;7619;48.562;8.910;2022-12-07T14:30:31;2.43;;;2.20;;
15043;SDS011;7619;48.562;8.910;2022-12-07T14:33:02;2.20;;;1.97;;
15043;SDS011;7619;48.562;8.910;2022-12-07T14:35:33;4.43;;;2.07;;
15043;SDS011;7619;48.562;8.910;2022-12-07T14:38:05;4.97;;;2.33;;
15043;SDS011;7619;48.562;8.910;2022-12-07T14:40:35;6.13;;;2.63;;
15043;SDS011;7619;48.562;8.910;2022-12-07T14:43:06;4.10;;;2.87;;
15043;SDS011;7619;48.562;8.910;2022-12-07T14:45:38;3.13;;;2.13;;
15043;SDS011;7619;48.562;8.910;2022-12-07T14:48:07;2.30;;;2.10;;
15043;SDS011;7619;48.562;8.910;2022-12-07T14:50:39;3.00;;;2.17;;
15043;SDS011;7619;48.562;8.910;2022-12-07T14:53:12;3.47;;;2.07;;
15043;SDS011;7619;48.562;8.910;2022-12-07T14:55:42;2.87;;;2.30;;
15043;SDS011;7619;48.562;8.910;2022-12-07T14:58:12;4.30;;;2.63;;
15043;SDS011;7619;48.562;8.910;2022-12-07T15:00:43;5.53;;;2.50;;
15043;SDS011;7619;48.562;8.910;2022-12-07T15:03:13;9.60;;;2.80;;
15043;SDS011;7619;48.562;8.910;2022-12-07T15:05:42;3.40;;;2.03;;
15043;SDS011;7619;48.562;8.910;2022-12-07T15:08:11;2.63;;;2.10;;
15043;SDS011;7619;48.562;8.910;2022-12-07T15:10:41;3.23;;;1.87;;
15043;SDS011;7619;48.562;8.910;2022-12-07T15:13:10;4.47;;;2.40;;
15043;SDS011;7619;48.562;8.910;2022-12-07T15:16:11;3.37;;;2.07;;
15043;SDS011;7619;48.562;8.910;2022-12-07T15:18:42;2.13;;;1.73;;
15043;SDS011;7619;48.562;8.910;2022-12-07T15:21:12;6.57;;;1.83;;
15043;SDS011;7619;48.562;8.910;2022-12-07T15:23:42;2.83;;;2.13;;
15043;SDS011;7619;48.562;8.910;2022-12-07T15:26:13;7.93;;;2.00;;
15043;SDS011;7619;48.562;8.910;2022-12-07T15:28:42;2.10;;;1.90;;
15043;SDS011;7619;48.562;8.910;2022-12-07T15:31:12;2.13;;;1.93;;
15043;SDS011;7619;48.562;8.910;2022-12-07T15:33:42;2.43;;;1.93;;
15043;SDS011;7619;48.562;8.910;2022-12-07T15:36:15;2.33;;;1.93;;
15043;SDS011;7619;48.562;8.910;2022-12-07T15:38:45;2.67;;;1.60;;
15043;SDS011;7619;48.562;8.910;2022-12-07T15:41:13;2.63;;;1.90;;
15043;SDS011;7619;48.562;8.910;2022-12-07T15:43:43;4.87;;;3.00;;
15043;SDS011;7619;48.562;8.910;2022-12-07T15:46:30;5.10;;;3.13;;
15043;SDS011;7619;48.562;8.910;2022-12-07T15:48:59;4.17;;;2.90;;
15043;SDS011;7619;48.562;8.910;2022-12-07T15:51:29;11.03;;;3.00;;
15043;SDS011;7619;48.562;8.910;2022-12-07T15:53:58;3.23;;;2.93;;
15043;SDS011;7619;48.562;8.910;2022-12-07T15:56:27;6.40;;;3.00;;
15043;SDS011;7619;48.562;8.910;2022-12-07T15:58:56;2.63;;;2.30;;
15043;SDS011;7619;48.562;8.910;2022-12-07T16:01:25;3.37;;;2.43;;
15043;SDS011;7619;48.562;8.910;2022-12-07T16:03:54;4.63;;;2.27;;